sensor_id;sensor_type;location;lat;lon;timestamp;pressure;altitude;pressure_sealevel;temperature;humidity
12963;BME280;6546;49.882;8.666;2023-01-27T00:00:09;100296.44;;;0.71;100.00
12963;BME280;6546;49.882;8.666;2023-01-27T00:02:38;100302.28;;;0.68;100.00
12963;BME280;6546;49.882;8.666;2023-01-27T00:05:06;100287.22;;;0.73;100.00
12963;BME280;6546;49.882;8.666;2023-01-27T00:07:33;100291.06;;;0.83;100.00
12963;BME280;6546;49.882;8.666;2023-01-27T00:10:00;100294.16;;;0.93;100.00
12963;BME280;6546;49.882;8.666;2023-01-27T00:12:26;100291.50;;;0.92;100.00
12963;BME280;6546;49.882;8.666;2023-01-27T00:15:12;100283.22;;;0.78;100.00
12963;BME280;6546;49.882;8.666;2023-01-27T00:17:41;100297.84;;;0.82;100.00
12963;BME280;6546;49.882;8.666;2023-01-27T00:20:08;100290.91;;;0.80;100.00
12963;BME280;6546;49.882;8.666;2023-01-27T00:22:35;100286.56;;;0.77;100.00
12963;BME280;6546;49.882;8.666;2023-01-27T00:25:19;100280.47;;;0.73;100.00
12963;BME280;6546;49.882;8.666;2023-01-27T00:27:46;100280.81;;;0.81;100.00
12963;BME280;6546;49.882;8.666;2023-01-27T00:30:13;100283.66;;;0.87;100.00
12963;BME280;6546;49.882;8.666;2023-01-27T00:32:41;100281.25;;;0.90;100.00
12963;BME280;6546;49.882;8.666;2023-01-27T00:35:25;100281.63;;;0.80;100.00
12963;BME280;6546;49.882;8.666;2023-01-27T00:37:51;100281.97;;;0.70;100.00
12963;BME280;6546;49.882;8.666;2023-01-27T00:40:18;100283.06;;;0.75;100.00
12963;BME280;6546;49.882;8.666;2023-01-27T00:42:45;100278.56;;;0.69;100.00
12963;BME280;6546;49.882;8.666;2023-01-27T00:45:11;100271.63;;;0.67;100.00
12963;BME280;6546;49.882;8.666;2023-01-27T00:47:57;100272.00;;;0.74;100.00
12963;BME280;6546;49.882;8.666;2023-01-27T00:50:23;100271.44;;;0.80;100.00
12963;BME280;6546;49.882;8.666;2023-01-27T00:52:50;100269.69;;;0.79;100.00
12963;BME280;6546;49.882;8.666;2023-01-27T00:55:17;100274.94;;;0.82;100.00
12963;BME280;6546;49.882;8.666;2023-01-27T00:57:43;100276.81;;;0.86;100.00
12963;BME280;6546;49.882;8.666;2023-01-27T01:00:11;100279.63;;;0.92;100.00
12963;BME280;6546;49.882;8.666;2023-01-27T01:02:39;100280.75;;;0.97;100.00
12963;BME280;6546;49.882;8.666;2023-01-27T01:05:08;100275.66;;;0.97;100.00
12963;BME280;6546;49.882;8.666;2023-01-27T01:07:34;100278.88;;;0.93;100.00
12963;BME280;6546;49.882;8.666;2023-01-27T01:10:01;100281.41;;;0.93;100.00
12963;BME280;6546;49.882;8.666;2023-01-27T01:12:27;100280.88;;;1.00;100.00
12963;BME280;6546;49.882;8.666;2023-01-27T01:14:54;100283.22;;;0.96;100.00
12963;BME280;6546;49.882;8.666;2023-01-27T01:17:20;100290.94;;;0.97;100.00
12963;BME280;6546;49.882;8.666;2023-01-27T01:19:47;100291.72;;;0.96;100.00
12963;BME280;6546;49.882;8.666;2023-01-27T01:22:15;100291.59;;;0.93;100.00
12963;BME280;6546;49.882;8.666;2023-01-27T01:24:42;100294.00;;;0.90;100.00
12963;BME280;6546;49.882;8.666;2023-01-27T01:27:08;100291.94;;;0.83;100.00
12963;BME280;6546;49.882;8.666;2023-01-27T01:29:35;100294.28;;;0.79;100.00
12963;BME280;6546;49.882;8.666;2023-01-27T01:32:01;100293.13;;;0.72;100.00
12963;BME280;6546;49.882;8.666;2023-01-27T01:34:28;100300.13;;;0.76;100.00
12963;BME280;6546;49.882;8.666;2023-01-27T01:36:55;100295.03;;;0.76;100.00
12963;BME280;6546;49.882;8.666;2023-01-27T01:39:23;100296.22;;;0.84;100.00
12963;BME280;6546;49.882;8.666;2023-01-27T01:41:49;100303.47;;;0.93;100.00
12963;BME280;6546;49.882;8.666;2023-01-27T01:44:23;100295.66;;;0.90;100.00
12963;BME280;6546;49.882;8.666;2023-01-27T01:46:50;100297.19;;;0.86;100.00
12963;BME280;6546;49.882;8.666;2023-01-27T01:49:17;100292.38;;;0.92;100.00
12963;BME280;6546;49.882;8.666;2023-01-27T01:51:49;100285.97;;;1.00;100.00
12963;BME280;6546;49.882;8.666;2023-01-27T01:54:20;100294.34;;;0.98;100.00
12963;BME280;6546;49.882;8.666;2023-01-27T01:56:54;100279.88;;;0.97;100.00
12963;BME280;6546;49.882;8.666;2023-01-27T01:59:23;100285.19;;;1.02;100.00
12963;BME280;6546;49.882;8.666;2023-01-27T02:01:51;100282.66;;;1.02;100.00
12963;BME280;6546;49.882;8.666;2023-01-27T02:04:23;100283.63;;;1.05;100.00
12963;BME280;6546;49.882;8.666;2023-01-27T02:06:55;100286.13;;;1.04;100.00
12963;BME280;6546;49.882;8.666;2023-01-27T02:09:23;100277.66;;;1.05;100.00
12963;BME280;6546;49.882;8.666;2023-01-27T02:11:51;100263.13;;;1.02;100.00
12963;BME280;6546;49.882;8.666;2023-01-27T02:14:19;100277.56;;;1.02;100.00
12963;BME280;6546;49.882;8.666;2023-01-27T02:16:45;100273.78;;;0.93;100.00
12963;BME280;6546;49.882;8.666;2023-01-27T02:19:18;100280.00;;;1.00;100.00
12963;BME280;6546;49.882;8.666;2023-01-27T02:21:48;100271.88;;;0.89;100.00
12963;BME280;6546;49.882;8.666;2023-01-27T02:24:16;100270.22;;;0.72;100.00
12963;BME280;6546;49.882;8.666;2023-01-27T02:26:44;100264.00;;;0.67;100.00
12963;BME280;6546;49.882;8.666;2023-01-27T02:29:14;100271.56;;;0.65;100.00
12963;BME280;6546;49.882;8.666;2023-01-27T02:31:41;100264.59;;;0.61;100.00
12963;BME280;6546;49.882;8.666;2023-01-27T02:34:10;100264.88;;;0.67;100.00
12963;BME280;6546;49.882;8.666;2023-01-27T02:36:39;100271.72;;;0.68;100.00
12963;BME280;6546;49.882;8.666;2023-01-27T02:39:10;100276.06;;;0.71;100.00
12963;BME280;6546;49.882;8.666;2023-01-27T02:41:39;100278.94;;;0.77;100.00
12963;BME280;6546;49.882;8.666;2023-01-27T02:44:08;100284.84;;;0.76;100.00
12963;BME280;6546;49.882;8.666;2023-01-27T02:46:35;100277.25;;;0.78;100.00
12963;BME280;6546;49.882;8.666;2023-01-27T02:49:02;100285.81;;;0.80;100.00
12963;BME280;6546;49.882;8.666;2023-01-27T02:51:28;100281.84;;;0.85;100.00
12963;BME280;6546;49.882;8.666;2023-01-27T02:53:55;100288.03;;;0.90;100.00
12963;BME280;6546;49.882;8.666;2023-01-27T02:56:22;100286.84;;;0.83;100.00
12963;BME280;6546;49.882;8.666;2023-01-27T02:58:48;100288.91;;;0.90;100.00
12963;BME280;6546;49.882;8.666;2023-01-27T03:01:16;100290.72;;;0.93;100.00
12963;BME280;6546;49.882;8.666;2023-01-27T03:03:43;100290.94;;;0.97;100.00
12963;BME280;6546;49.882;8.666;2023-01-27T03:06:11;100289.75;;;0.91;100.00
12963;BME280;6546;49.882;8.666;2023-01-27T03:08:39;100287.94;;;0.88;100.00
12963;BME280;6546;49.882;8.666;2023-01-27T03:11:05;100289.16;;;0.96;100.00
12963;BME280;6546;49.882;8.666;2023-01-27T03:13:32;100289.31;;;0.99;100.00
12963;BME280;6546;49.882;8.666;2023-01-27T03:16:01;100291.06;;;1.00;100.00
12963;BME280;6546;49.882;8.666;2023-01-27T03:18:48;100288.16;;;1.11;100.00
12963;BME280;6546;49.882;8.666;2023-01-27T03:21:16;100298.25;;;1.09;100.00
12963;BME280;6546;49.882;8.666;2023-01-27T03:23:43;100296.00;;;1.15;100.00
12963;BME280;6546;49.882;8.666;2023-01-27T03:26:13;100300.25;;;1.15;100.00
12963;BME280;6546;49.882;8.666;2023-01-27T03:28:40;100299.59;;;1.19;100.00
12963;BME280;6546;49.882;8.666;2023-01-27T03:31:08;100296.44;;;1.24;100.00
12963;BME280;6546;49.882;8.666;2023-01-27T03:33:43;100296.44;;;1.24;100.00
12963;BME280;6546;49.882;8.666;2023-01-27T03:36:13;100291.50;;;1.28;100.00
12963;BME280;6546;49.882;8.666;2023-01-27T03:38:57;100296.72;;;1.13;100.00
12963;BME280;6546;49.882;8.666;2023-01-27T03:41:41;100296.16;;;1.18;100.00
12963;BME280;6546;49.882;8.666;2023-01-27T03:44:25;100294.59;;;1.22;100.00
12963;BME280;6546;49.882;8.666;2023-01-27T03:47:10;100295.72;;;1.27;100.00
12963;BME280;6546;49.882;8.666;2023-01-27T03:49:37;100299.34;;;1.32;100.00
12963;BME280;6546;49.882;8.666;2023-01-27T03:52:04;100301.88;;;1.32;100.00
12963;BME280;6546;49.882;8.666;2023-01-27T03:54:31;100299.03;;;1.26;100.00
12963;BME280;6546;49.882;8.666;2023-01-27T03:56:58;100286.41;;;1.28;100.00
12963;BME280;6546;49.882;8.666;2023-01-27T03:59:30;100304.28;;;1.29;100.00
12963;BME280;6546;49.882;8.666;2023-01-27T04:01:56;100302.69;;;1.31;100.00
12963;BME280;6546;49.882;8.666;2023-01-27T04:04:41;100311.13;;;1.30;100.00
12963;BME280;6546;49.882;8.666;2023-01-27T04:07:26;100310.00;;;1.23;100.00
12963;BME280;6546;49.882;8.666;2023-01-27T04:09:53;100309.53;;;1.32;100.00
12963;BME280;6546;49.882;8.666;2023-01-27T04:12:19;100309.09;;;1.41;100.00
12963;BME280;6546;49.882;8.666;2023-01-27T04:14:45;100298.94;;;1.42;100.00
12963;BME280;6546;49.882;8.666;2023-01-27T04:17:14;100305.38;;;1.34;100.00
12963;BME280;6546;49.882;8.666;2023-01-27T04:19:41;100311.28;;;1.33;100.00
12963;BME280;6546;49.882;8.666;2023-01-27T04:22:09;100303.94;;;1.39;100.00
12963;BME280;6546;49.882;8.666;2023-01-27T04:24:37;100304.03;;;1.42;100.00
12963;BME280;6546;49.882;8.666;2023-01-27T04:27:05;100309.94;;;1.41;100.00
12963;BME280;6546;49.882;8.666;2023-01-27T04:29:34;100302.81;;;1.34;100.00
12963;BME280;6546;49.882;8.666;2023-01-27T04:32:02;100304.59;;;1.35;100.00
12963;BME280;6546;49.882;8.666;2023-01-27T04:34:30;100304.84;;;1.41;100.00
12963;BME280;6546;49.882;8.666;2023-01-27T04:36:58;100302.81;;;1.52;100.00
12963;BME280;6546;49.882;8.666;2023-01-27T04:39:25;100305.66;;;1.40;100.00
12963;BME280;6546;49.882;8.666;2023-01-27T04:41:54;100300.72;;;1.43;100.00
12963;BME280;6546;49.882;8.666;2023-01-27T04:44:20;100305.88;;;1.45;100.00
12963;BME280;6546;49.882;8.666;2023-01-27T04:46:48;100309.34;;;1.47;100.00
12963;BME280;6546;49.882;8.666;2023-01-27T04:49:14;100310.31;;;1.49;100.00
12963;BME280;6546;49.882;8.666;2023-01-27T04:51:41;100322.69;;;1.41;100.00
12963;BME280;6546;49.882;8.666;2023-01-27T04:54:08;100322.91;;;1.46;100.00
12963;BME280;6546;49.882;8.666;2023-01-27T04:56:36;100328.59;;;1.40;100.00
12963;BME280;6546;49.882;8.666;2023-01-27T04:59:06;100323.97;;;1.32;100.00
12963;BME280;6546;49.882;8.666;2023-01-27T05:01:33;100325.75;;;1.34;100.00
12963;BME280;6546;49.882;8.666;2023-01-27T05:03:59;100322.44;;;1.35;100.00
12963;BME280;6546;49.882;8.666;2023-01-27T05:06:28;100326.56;;;1.33;100.00
12963;BME280;6546;49.882;8.666;2023-01-27T05:08:55;100321.41;;;1.32;100.00
12963;BME280;6546;49.882;8.666;2023-01-27T05:11:21;100334.28;;;1.35;100.00
12963;BME280;6546;49.882;8.666;2023-01-27T05:13:48;100327.59;;;1.37;100.00
12963;BME280;6546;49.882;8.666;2023-01-27T05:16:17;100329.47;;;1.41;100.00
12963;BME280;6546;49.882;8.666;2023-01-27T05:18:46;100335.44;;;1.41;100.00
12963;BME280;6546;49.882;8.666;2023-01-27T05:21:14;100325.44;;;1.46;100.00
12963;BME280;6546;49.882;8.666;2023-01-27T05:23:41;100334.63;;;1.42;100.00
12963;BME280;6546;49.882;8.666;2023-01-27T05:26:10;100322.63;;;1.40;100.00
12963;BME280;6546;49.882;8.666;2023-01-27T05:28:38;100325.31;;;1.43;100.00
12963;BME280;6546;49.882;8.666;2023-01-27T05:31:07;100323.06;;;1.49;100.00
12963;BME280;6546;49.882;8.666;2023-01-27T05:33:35;100338.13;;;1.44;100.00
12963;BME280;6546;49.882;8.666;2023-01-27T05:36:04;100334.00;;;1.29;100.00
12963;BME280;6546;49.882;8.666;2023-01-27T05:38:31;100336.91;;;1.36;100.00
12963;BME280;6546;49.882;8.666;2023-01-27T05:40:59;100334.38;;;1.36;100.00
12963;BME280;6546;49.882;8.666;2023-01-27T05:43:27;100338.59;;;1.36;100.00
12963;BME280;6546;49.882;8.666;2023-01-27T05:46:01;100342.94;;;1.38;100.00
12963;BME280;6546;49.882;8.666;2023-01-27T05:48:28;100342.16;;;1.39;100.00
12963;BME280;6546;49.882;8.666;2023-01-27T05:50:57;100333.97;;;1.46;100.00
12963;BME280;6546;49.882;8.666;2023-01-27T05:53:24;100347.69;;;1.48;100.00
12963;BME280;6546;49.882;8.666;2023-01-27T05:55:51;100348.59;;;1.50;100.00
12963;BME280;6546;49.882;8.666;2023-01-27T05:58:19;100351.16;;;1.50;100.00
12963;BME280;6546;49.882;8.666;2023-01-27T06:00:46;100348.91;;;1.57;100.00
12963;BME280;6546;49.882;8.666;2023-01-27T06:03:13;100345.13;;;1.48;100.00
12963;BME280;6546;49.882;8.666;2023-01-27T06:05:53;100353.66;;;1.49;100.00
12963;BME280;6546;49.882;8.666;2023-01-27T06:08:22;100361.50;;;1.54;100.00
12963;BME280;6546;49.882;8.666;2023-01-27T06:10:49;100345.34;;;1.53;100.00
12963;BME280;6546;49.882;8.666;2023-01-27T06:13:16;100344.47;;;1.53;100.00
12963;BME280;6546;49.882;8.666;2023-01-27T06:15:44;100356.25;;;1.50;100.00
12963;BME280;6546;49.882;8.666;2023-01-27T06:18:12;100363.25;;;1.55;100.00
12963;BME280;6546;49.882;8.666;2023-01-27T06:20:39;100352.47;;;1.42;100.00
12963;BME280;6546;49.882;8.666;2023-01-27T06:23:07;100369.00;;;1.50;100.00
12963;BME280;6546;49.882;8.666;2023-01-27T06:25:36;100358.31;;;1.40;100.00
12963;BME280;6546;49.882;8.666;2023-01-27T06:28:04;100365.16;;;1.41;100.00
12963;BME280;6546;49.882;8.666;2023-01-27T06:30:31;100362.00;;;1.46;100.00
12963;BME280;6546;49.882;8.666;2023-01-27T06:32:58;100358.94;;;1.54;100.00
12963;BME280;6546;49.882;8.666;2023-01-27T06:35:25;100371.78;;;1.37;100.00
12963;BME280;6546;49.882;8.666;2023-01-27T06:37:51;100369.69;;;1.29;100.00
12963;BME280;6546;49.882;8.666;2023-01-27T06:40:18;100370.09;;;1.38;100.00
12963;BME280;6546;49.882;8.666;2023-01-27T06:42:46;100374.75;;;1.46;100.00
12963;BME280;6546;49.882;8.666;2023-01-27T06:45:13;100376.66;;;1.50;100.00
12963;BME280;6546;49.882;8.666;2023-01-27T06:47:40;100373.59;;;1.58;100.00
12963;BME280;6546;49.882;8.666;2023-01-27T06:50:09;100384.66;;;1.58;100.00
12963;BME280;6546;49.882;8.666;2023-01-27T06:52:36;100385.38;;;1.56;100.00
12963;BME280;6546;49.882;8.666;2023-01-27T06:55:04;100383.94;;;1.43;100.00
12963;BME280;6546;49.882;8.666;2023-01-27T06:57:30;100384.53;;;1.37;100.00
12963;BME280;6546;49.882;8.666;2023-01-27T06:59:58;100386.16;;;1.35;100.00
12963;BME280;6546;49.882;8.666;2023-01-27T07:02:25;100391.25;;;1.35;100.00
12963;BME280;6546;49.882;8.666;2023-01-27T07:04:51;100399.97;;;1.40;100.00
12963;BME280;6546;49.882;8.666;2023-01-27T07:07:18;100392.38;;;1.42;100.00
12963;BME280;6546;49.882;8.666;2023-01-27T07:09:45;100392.59;;;1.46;100.00
12963;BME280;6546;49.882;8.666;2023-01-27T07:12:11;100400.81;;;1.59;100.00
12963;BME280;6546;49.882;8.666;2023-01-27T07:14:38;100393.28;;;1.60;100.00
12963;BME280;6546;49.882;8.666;2023-01-27T07:17:06;100398.78;;;1.69;100.00
12963;BME280;6546;49.882;8.666;2023-01-27T07:19:33;100411.53;;;1.69;100.00
12963;BME280;6546;49.882;8.666;2023-01-27T07:21:59;100414.81;;;1.49;100.00
12963;BME280;6546;49.882;8.666;2023-01-27T07:24:26;100409.44;;;1.61;100.00
12963;BME280;6546;49.882;8.666;2023-01-27T07:26:52;100410.44;;;1.46;100.00
12963;BME280;6546;49.882;8.666;2023-01-27T07:29:19;100408.72;;;1.45;100.00
12963;BME280;6546;49.882;8.666;2023-01-27T07:31:46;100411.69;;;1.55;100.00
12963;BME280;6546;49.882;8.666;2023-01-27T07:34:14;100416.78;;;1.55;100.00
12963;BME280;6546;49.882;8.666;2023-01-27T07:36:40;100415.31;;;1.60;100.00
12963;BME280;6546;49.882;8.666;2023-01-27T07:39:07;100416.94;;;1.58;100.00
12963;BME280;6546;49.882;8.666;2023-01-27T07:41:33;100424.84;;;1.64;100.00
12963;BME280;6546;49.882;8.666;2023-01-27T07:44:00;100427.41;;;1.64;100.00
12963;BME280;6546;49.882;8.666;2023-01-27T07:46:26;100426.75;;;1.68;100.00
12963;BME280;6546;49.882;8.666;2023-01-27T07:48:53;100431.84;;;1.68;100.00
12963;BME280;6546;49.882;8.666;2023-01-27T07:51:21;100427.63;;;1.50;100.00
12963;BME280;6546;49.882;8.666;2023-01-27T07:53:47;100420.19;;;1.55;100.00
12963;BME280;6546;49.882;8.666;2023-01-27T07:56:15;100429.84;;;1.61;100.00
12963;BME280;6546;49.882;8.666;2023-01-27T07:58:41;100438.56;;;1.66;100.00
12963;BME280;6546;49.882;8.666;2023-01-27T08:01:10;100428.88;;;1.59;100.00
12963;BME280;6546;49.882;8.666;2023-01-27T08:03:37;100429.19;;;1.65;100.00
12963;BME280;6546;49.882;8.666;2023-01-27T08:06:04;100433.53;;;1.67;100.00
12963;BME280;6546;49.882;8.666;2023-01-27T08:08:33;100435.41;;;1.71;100.00
12963;BME280;6546;49.882;8.666;2023-01-27T08:11:01;100439.59;;;1.69;100.00
12963;BME280;6546;49.882;8.666;2023-01-27T08:13:29;100448.75;;;1.66;100.00
12963;BME280;6546;49.882;8.666;2023-01-27T08:15:56;100441.19;;;1.67;100.00
12963;BME280;6546;49.882;8.666;2023-01-27T08:18:23;100450.66;;;1.70;100.00
12963;BME280;6546;49.882;8.666;2023-01-27T08:20:49;100442.50;;;1.77;100.00
12963;BME280;6546;49.882;8.666;2023-01-27T08:23:17;100440.00;;;1.79;100.00
12963;BME280;6546;49.882;8.666;2023-01-27T08:25:49;100446.25;;;1.85;100.00
12963;BME280;6546;49.882;8.666;2023-01-27T08:28:16;100445.94;;;1.97;100.00
12963;BME280;6546;49.882;8.666;2023-01-27T08:30:43;100441.81;;;1.99;100.00
12963;BME280;6546;49.882;8.666;2023-01-27T08:33:10;100446.97;;;2.00;100.00
12963;BME280;6546;49.882;8.666;2023-01-27T08:35:37;100446.56;;;1.91;100.00
12963;BME280;6546;49.882;8.666;2023-01-27T08:38:08;100450.47;;;2.03;100.00
12963;BME280;6546;49.882;8.666;2023-01-27T08:40:36;100457.16;;;2.00;100.00
12963;BME280;6546;49.882;8.666;2023-01-27T08:43:04;100460.22;;;1.93;100.00
12963;BME280;6546;49.882;8.666;2023-01-27T08:45:31;100459.56;;;1.97;100.00
12963;BME280;6546;49.882;8.666;2023-01-27T08:47:57;100468.19;;;1.99;100.00
12963;BME280;6546;49.882;8.666;2023-01-27T08:50:24;100473.91;;;2.13;100.00
12963;BME280;6546;49.882;8.666;2023-01-27T08:52:51;100474.81;;;1.96;100.00
12963;BME280;6546;49.882;8.666;2023-01-27T08:55:18;100473.38;;;1.83;100.00
12963;BME280;6546;49.882;8.666;2023-01-27T08:57:44;100475.13;;;1.84;100.00
12963;BME280;6546;49.882;8.666;2023-01-27T09:00:13;100474.47;;;1.88;100.00
12963;BME280;6546;49.882;8.666;2023-01-27T09:02:40;100477.81;;;1.87;100.00
12963;BME280;6546;49.882;8.666;2023-01-27T09:05:08;100480.38;;;1.87;100.00
12963;BME280;6546;49.882;8.666;2023-01-27T09:07:35;100482.41;;;1.94;100.00
12963;BME280;6546;49.882;8.666;2023-01-27T09:10:03;100483.56;;;2.01;100.00
12963;BME280;6546;49.882;8.666;2023-01-27T09:12:30;100487.63;;;1.97;100.00
12963;BME280;6546;49.882;8.666;2023-01-27T09:14:57;100488.97;;;2.07;100.00
12963;BME280;6546;49.882;8.666;2023-01-27T09:17:26;100492.84;;;2.18;100.00
12963;BME280;6546;49.882;8.666;2023-01-27T09:19:52;100499.13;;;2.25;100.00
12963;BME280;6546;49.882;8.666;2023-01-27T09:22:19;100498.31;;;2.26;100.00
12963;BME280;6546;49.882;8.666;2023-01-27T09:24:45;100499.34;;;2.30;100.00
12963;BME280;6546;49.882;8.666;2023-01-27T09:27:12;100490.19;;;2.35;100.00
12963;BME280;6546;49.882;8.666;2023-01-27T09:29:38;100504.91;;;2.21;100.00
12963;BME280;6546;49.882;8.666;2023-01-27T09:32:05;100497.19;;;2.19;100.00
12963;BME280;6546;49.882;8.666;2023-01-27T09:34:34;100499.06;;;2.23;100.00
12963;BME280;6546;49.882;8.666;2023-01-27T09:37:04;100503.06;;;2.18;100.00
12963;BME280;6546;49.882;8.666;2023-01-27T09:39:34;100503.06;;;2.18;100.00
12963;BME280;6546;49.882;8.666;2023-01-27T09:45:17;100506.06;;;2.10;100.00
12963;BME280;6546;49.882;8.666;2023-01-27T09:47:58;100508.38;;;2.23;100.00
12963;BME280;6546;49.882;8.666;2023-01-27T09:50:38;100506.38;;;2.35;100.00
12963;BME280;6546;49.882;8.666;2023-01-27T09:53:24;100511.47;;;2.35;100.00
12963;BME280;6546;49.882;8.666;2023-01-27T09:55:58;100507.59;;;2.24;100.00
12963;BME280;6546;49.882;8.666;2023-01-27T09:58:37;100506.28;;;2.14;100.00
12963;BME280;6546;49.882;8.666;2023-01-27T10:01:13;100505.28;;;2.11;100.00
12963;BME280;6546;49.882;8.666;2023-01-27T10:04:09;100496.22;;;2.17;100.00
12963;BME280;6546;49.882;8.666;2023-01-27T10:06:55;100498.97;;;2.22;100.00
12963;BME280;6546;49.882;8.666;2023-01-27T10:09:42;100491.25;;;2.20;100.00
12963;BME280;6546;49.882;8.666;2023-01-27T10:12:27;100495.75;;;2.26;100.00
12963;BME280;6546;49.882;8.666;2023-01-27T10:15:03;100497.72;;;2.32;100.00
12963;BME280;6546;49.882;8.666;2023-01-27T10:17:41;100496.16;;;2.35;100.00
12963;BME280;6546;49.882;8.666;2023-01-27T10:20:26;100496.88;;;2.50;100.00
12963;BME280;6546;49.882;8.666;2023-01-27T10:23:13;100501.31;;;2.55;100.00
12963;BME280;6546;49.882;8.666;2023-01-27T10:25:52;100500.97;;;2.47;100.00
12963;BME280;6546;49.882;8.666;2023-01-27T10:28:27;100496.53;;;2.43;100.00
12963;BME280;6546;49.882;8.666;2023-01-27T10:30:58;100494.84;;;2.43;100.00
12963;BME280;6546;49.882;8.666;2023-01-27T10:33:38;100491.75;;;2.50;100.00
12963;BME280;6546;49.882;8.666;2023-01-27T10:36:14;100495.13;;;2.49;100.00
12963;BME280;6546;49.882;8.666;2023-01-27T10:38:50;100484.91;;;2.49;100.00
12963;BME280;6546;49.882;8.666;2023-01-27T10:41:28;100473.22;;;2.55;100.00
12963;BME280;6546;49.882;8.666;2023-01-27T10:44:09;100485.13;;;2.54;100.00
12963;BME280;6546;49.882;8.666;2023-01-27T10:46:46;100481.41;;;2.67;100.00
12963;BME280;6546;49.882;8.666;2023-01-27T10:49:19;100483.09;;;2.66;100.00
12963;BME280;6546;49.882;8.666;2023-01-27T10:51:51;100472.41;;;2.75;100.00
12963;BME280;6546;49.882;8.666;2023-01-27T10:54:25;100478.03;;;2.68;100.00
12963;BME280;6546;49.882;8.666;2023-01-27T10:56:56;100482.91;;;2.62;100.00
12963;BME280;6546;49.882;8.666;2023-01-27T10:59:30;100478.00;;;2.66;100.00
12963;BME280;6546;49.882;8.666;2023-01-27T11:02:02;100472.66;;;2.81;100.00
12963;BME280;6546;49.882;8.666;2023-01-27T11:04:38;100469.19;;;2.79;100.00
12963;BME280;6546;49.882;8.666;2023-01-27T11:07:13;100465.41;;;2.71;100.00
12963;BME280;6546;49.882;8.666;2023-01-27T11:09:47;100467.28;;;2.75;100.00
12963;BME280;6546;49.882;8.666;2023-01-27T11:12:21;100467.41;;;2.78;100.00
12963;BME280;6546;49.882;8.666;2023-01-27T11:14:51;100471.72;;;2.79;100.00
12963;BME280;6546;49.882;8.666;2023-01-27T11:17:26;100462.56;;;2.84;100.00
12963;BME280;6546;49.882;8.666;2023-01-27T11:20:00;100477.91;;;2.84;100.00
12963;BME280;6546;49.882;8.666;2023-01-27T11:22:35;100471.31;;;2.89;100.00
12963;BME280;6546;49.882;8.666;2023-01-27T11:25:10;100482.28;;;2.87;100.00
12963;BME280;6546;49.882;8.666;2023-01-27T11:28:01;100474.72;;;2.90;100.00
12963;BME280;6546;49.882;8.666;2023-01-27T11:30:38;100476.53;;;2.92;100.00
12963;BME280;6546;49.882;8.666;2023-01-27T11:33:21;100464.44;;;2.88;100.00
12963;BME280;6546;49.882;8.666;2023-01-27T11:35:52;100468.44;;;3.03;100.00
12963;BME280;6546;49.882;8.666;2023-01-27T11:38:21;100463.84;;;3.15;100.00
12963;BME280;6546;49.882;8.666;2023-01-27T11:40:54;100467.56;;;3.02;100.00
12963;BME280;6546;49.882;8.666;2023-01-27T11:43:25;100473.69;;;3.06;100.00
12963;BME280;6546;49.882;8.666;2023-01-27T11:46:00;100468.97;;;3.15;100.00
12963;BME280;6546;49.882;8.666;2023-01-27T11:48:36;100467.88;;;3.29;100.00
12963;BME280;6546;49.882;8.666;2023-01-27T11:51:12;100461.25;;;3.13;100.00
12963;BME280;6546;49.882;8.666;2023-01-27T11:53:40;100464.34;;;3.27;100.00
12963;BME280;6546;49.882;8.666;2023-01-27T11:56:14;100457.72;;;3.32;100.00
12963;BME280;6546;49.882;8.666;2023-01-27T11:58:48;100450.19;;;3.35;100.00
12963;BME280;6546;49.882;8.666;2023-01-27T12:01:17;100450.88;;;3.31;100.00
12963;BME280;6546;49.882;8.666;2023-01-27T12:03:51;100453.94;;;3.22;100.00
12963;BME280;6546;49.882;8.666;2023-01-27T12:06:26;100457.91;;;3.16;100.00
12963;BME280;6546;49.882;8.666;2023-01-27T12:08:56;100450.50;;;3.22;100.00
12963;BME280;6546;49.882;8.666;2023-01-27T12:11:26;100443.56;;;3.40;100.00
12963;BME280;6546;49.882;8.666;2023-01-27T12:13:55;100441.38;;;3.49;100.00
12963;BME280;6546;49.882;8.666;2023-01-27T12:16:26;100448.00;;;3.44;100.00
12963;BME280;6546;49.882;8.666;2023-01-27T12:18:59;100440.69;;;3.33;100.00
12963;BME280;6546;49.882;8.666;2023-01-27T12:21:37;100443.84;;;3.46;100.00
12963;BME280;6546;49.882;8.666;2023-01-27T12:24:20;100438.22;;;3.55;100.00
12963;BME280;6546;49.882;8.666;2023-01-27T12:26:50;100437.22;;;3.52;100.00
12963;BME280;6546;49.882;8.666;2023-01-27T12:29:20;100441.78;;;3.59;100.00
12963;BME280;6546;49.882;8.666;2023-01-27T12:31:52;100439.78;;;3.52;100.00
12963;BME280;6546;49.882;8.666;2023-01-27T12:34:24;100438.91;;;3.51;100.00
12963;BME280;6546;49.882;8.666;2023-01-27T12:36:53;100437.69;;;3.41;100.00
12963;BME280;6546;49.882;8.666;2023-01-27T12:39:39;100435.13;;;3.41;100.00
12963;BME280;6546;49.882;8.666;2023-01-27T12:42:33;100435.22;;;3.44;100.00
12963;BME280;6546;49.882;8.666;2023-01-27T12:45:16;100430.34;;;3.50;100.00
12963;BME280;6546;49.882;8.666;2023-01-27T12:47:54;100429.75;;;3.58;100.00
12963;BME280;6546;49.882;8.666;2023-01-27T12:50:22;100429.66;;;3.55;100.00
12963;BME280;6546;49.882;8.666;2023-01-27T12:52:55;100428.03;;;3.57;100.00
12963;BME280;6546;49.882;8.666;2023-01-27T12:55:28;100426.28;;;3.56;100.00
12963;BME280;6546;49.882;8.666;2023-01-27T12:57:56;100431.75;;;3.65;100.00
12963;BME280;6546;49.882;8.666;2023-01-27T13:00:24;100429.91;;;3.61;100.00
12963;BME280;6546;49.882;8.666;2023-01-27T13:02:51;100429.66;;;3.55;100.00
12963;BME280;6546;49.882;8.666;2023-01-27T13:05:21;100432.78;;;3.47;100.00
12963;BME280;6546;49.882;8.666;2023-01-27T13:07:51;100427.69;;;3.47;100.00
12963;BME280;6546;49.882;8.666;2023-01-27T13:10:20;100430.41;;;3.52;100.00
12963;BME280;6546;49.882;8.666;2023-01-27T13:12:49;100426.28;;;3.56;100.00
12963;BME280;6546;49.882;8.666;2023-01-27T13:15:19;100428.16;;;3.60;100.00
12963;BME280;6546;49.882;8.666;2023-01-27T13:17:47;100425.41;;;3.55;100.00